createdAt,value
2019-05-25T00:01:28.629Z,101049.19
2019-05-25T00:03:57.043Z,101050.98
2019-05-25T00:06:29.484Z,101050.37
2019-05-25T00:09:01.928Z,101051.68
2019-05-25T00:11:29.635Z,101056.75
2019-05-25T00:14:00.809Z,101058.20
2019-05-25T00:16:29.495Z,101060.87
2019-05-25T00:18:58.919Z,101056.39
2019-05-25T00:21:27.392Z,101053.56
2019-05-25T00:24:10.881Z,101049.71
2019-05-25T00:26:25.979Z,101050.86
2019-05-25T00:28:54.990Z,101055.02
2019-05-25T00:31:23.408Z,101059.91
2019-05-25T00:33:51.851Z,101060.36
2019-05-25T00:36:24.273Z,101055.72
2019-05-25T00:38:55.420Z,101060.73
2019-05-25T00:41:23.974Z,101056.08
2019-05-25T00:43:52.386Z,101060.45
2019-05-25T00:46:22.349Z,101063.09
2019-05-25T00:48:50.757Z,101061.75
2019-05-25T00:51:24.021Z,101061.42
2019-05-25T00:53:52.456Z,101072.77
2019-05-25T00:56:20.861Z,101068.73
2019-05-25T00:58:49.305Z,101068.77
2019-05-25T01:01:19.788Z,101064.30
2019-05-25T01:03:52.055Z,101069.16
2019-05-25T01:06:20.485Z,101064.81
2019-05-25T01:08:48.911Z,101069.86
2019-05-25T01:11:17.315Z,101071.50
2019-05-25T01:13:46.704Z,101075.82
2019-05-25T01:16:16.121Z,101066.64
2019-05-25T01:18:48.362Z,101070.48
2019-05-25T01:21:16.787Z,101069.82
2019-05-25T01:23:45.220Z,101067.30
2019-05-25T01:26:17.583Z,101063.94
2019-05-25T01:28:46.107Z,101065.40
2019-05-25T01:31:14.690Z,101068.22
2019-05-25T01:33:43.111Z,101063.06
2019-05-25T01:36:11.626Z,101067.41
2019-05-25T01:38:45.575Z,101065.73
2019-05-25T01:41:12.683Z,101068.08
2019-05-25T01:43:47.695Z,101072.80
2019-05-25T01:46:16.142Z,101070.83
2019-05-25T01:48:45.611Z,101074.78
2019-05-25T01:51:16.570Z,101071.41
2019-05-25T01:53:48.461Z,101076.75
2019-05-25T01:56:20.588Z,101068.41
2019-05-25T01:58:52.921Z,101072.11
2019-05-25T02:01:21.347Z,101071.75
2019-05-25T02:03:51.280Z,101070.11
2019-05-25T02:06:19.697Z,101064.79
2019-05-25T02:08:48.099Z,101062.78
2019-05-25T02:11:16.512Z,101065.43
2019-05-25T02:13:44.923Z,101067.45
2019-05-25T02:16:15.857Z,101066.27
2019-05-25T02:18:47.746Z,101065.45
2019-05-25T02:21:16.177Z,101069.12
2019-05-25T02:23:46.608Z,101071.11
2019-05-25T02:26:15.046Z,101068.80
2019-05-25T02:28:45.927Z,101069.30
2019-05-25T02:31:17.027Z,101064.48
2019-05-25T02:33:49.549Z,101072.80
2019-05-25T02:36:20.529Z,101074.78
2019-05-25T02:38:48.323Z,101073.80
2019-05-25T02:41:19.167Z,101069.81
2019-05-25T02:43:51.235Z,101072.69
2019-05-25T02:46:19.631Z,101070.64
2019-05-25T02:48:48.068Z,101076.48
2019-05-25T02:51:16.487Z,101079.16
2019-05-25T02:53:46.002Z,101082.86
2019-05-25T02:56:15.857Z,101082.17
2019-05-25T02:58:50.937Z,101083.17
2019-05-25T03:01:22.062Z,101083.66
2019-05-25T03:03:54.707Z,101081.17
2019-05-25T03:06:23.523Z,101088.48
2019-05-25T03:08:53.487Z,101087.00
2019-05-25T03:11:22.176Z,101091.16
2019-05-25T03:13:55.829Z,101089.84
2019-05-25T03:16:24.232Z,101092.84
2019-05-25T03:18:52.650Z,101093.82
2019-05-25T03:21:26.676Z,101088.66
2019-05-25T03:23:55.281Z,101083.97
2019-05-25T03:26:28.512Z,101084.97
2019-05-25T03:29:01.095Z,101089.84
2019-05-25T03:31:32.243Z,101093.80
2019-05-25T03:34:00.666Z,101096.68
2019-05-25T03:36:29.085Z,101091.83
2019-05-25T03:38:59.406Z,101097.83
2019-05-25T03:41:27.826Z,101104.34
2019-05-25T03:43:59.108Z,101102.33
2019-05-25T03:46:28.496Z,101096.20
2019-05-25T03:48:57.302Z,101107.69
2019-05-25T03:51:28.174Z,101103.02
2019-05-25T03:53:56.629Z,101109.67
2019-05-25T03:56:25.043Z,101105.46
2019-05-25T03:58:53.499Z,101104.83
2019-05-25T04:01:21.911Z,101104.47
2019-05-25T04:03:53.670Z,101103.64
2019-05-25T04:06:24.419Z,101107.31
2019-05-25T04:08:52.269Z,101111.83
2019-05-25T04:11:20.742Z,101110.52
2019-05-25T04:13:49.156Z,101106.16
2019-05-25T04:16:21.200Z,101111.29
2019-05-25T04:18:49.609Z,101115.86
2019-05-25T04:21:18.968Z,101108.69
2019-05-25T04:23:51.434Z,101110.80
2019-05-25T04:26:22.596Z,101110.44
2019-05-25T04:28:55.538Z,101118.46
2019-05-25T04:31:27.202Z,101118.92
2019-05-25T04:34:03.109Z,101114.77
2019-05-25T04:36:32.520Z,101121.62
2019-05-25T04:39:00.959Z,101119.44
2019-05-25T04:41:29.378Z,101122.44
2019-05-25T04:43:57.793Z,101122.38
2019-05-25T04:46:26.295Z,101125.05
2019-05-25T04:49:04.169Z,101118.97
2019-05-25T04:51:32.609Z,101125.28
2019-05-25T04:54:04.669Z,101129.72
2019-05-25T04:56:39.551Z,101131.29
2019-05-25T04:59:12.691Z,101131.67
2019-05-25T05:01:41.110Z,101126.86
2019-05-25T05:04:09.538Z,101133.36
2019-05-25T05:06:37.960Z,101136.17
2019-05-25T05:09:10.223Z,101125.85
2019-05-25T05:11:41.111Z,101132.81
2019-05-25T05:14:09.517Z,101138.89
2019-05-25T05:16:37.974Z,101132.63
2019-05-25T05:19:06.385Z,101138.64
2019-05-25T05:21:34.817Z,101136.94
2019-05-25T05:24:03.235Z,101145.62
2019-05-25T05:26:31.656Z,101140.94
2019-05-25T05:29:00.142Z,101141.94
2019-05-25T05:31:28.697Z,101146.95
2019-05-25T05:33:57.105Z,101150.25
2019-05-25T05:36:27.342Z,101147.83
2019-05-25T05:38:58.595Z,101142.12
2019-05-25T05:41:31.132Z,101150.68
2019-05-25T05:44:04.740Z,101143.89
2019-05-25T05:46:34.799Z,101147.66
2019-05-25T05:49:03.956Z,101147.04
2019-05-25T05:51:35.954Z,101158.19
2019-05-25T05:54:05.520Z,101159.89
2019-05-25T05:56:33.927Z,101159.95
2019-05-25T05:59:02.327Z,101158.42
2019-05-25T06:01:30.743Z,101159.98
2019-05-25T06:03:59.171Z,101165.48
2019-05-25T06:06:27.587Z,101160.28
2019-05-25T06:08:56.003Z,101161.53
2019-05-25T06:11:25.474Z,101162.23
2019-05-25T06:13:55.005Z,101169.50
2019-05-25T06:16:23.453Z,101163.98
2019-05-25T06:18:54.344Z,101165.88
2019-05-25T06:21:26.565Z,101168.65
2019-05-25T06:23:54.984Z,101172.33
2019-05-25T06:26:28.283Z,101172.03
2019-05-25T06:29:02.803Z,101173.51
2019-05-25T06:31:31.201Z,101173.20
2019-05-25T06:34:06.614Z,101171.70
2019-05-25T06:36:37.670Z,101174.82
2019-05-25T06:39:08.029Z,101170.04
2019-05-25T06:41:36.580Z,101172.08
2019-05-25T06:44:05.742Z,101173.86
2019-05-25T06:46:34.188Z,101177.57
2019-05-25T06:49:02.594Z,101176.80
2019-05-25T06:51:31.013Z,101183.20
2019-05-25T06:53:59.423Z,101184.59
2019-05-25T06:56:31.652Z,101192.05
2019-05-25T06:59:01.126Z,101190.08
2019-05-25T07:01:32.265Z,101192.48
2019-05-25T07:04:00.207Z,101197.70
2019-05-25T07:06:29.689Z,101196.77
2019-05-25T07:09:06.212Z,101187.83
2019-05-25T07:11:34.717Z,101189.35
2019-05-25T07:14:03.143Z,101199.70
2019-05-25T07:16:33.099Z,101195.09
2019-05-25T07:19:01.470Z,101198.34
2019-05-25T07:21:29.874Z,101199.37
2019-05-25T07:23:58.296Z,101194.89
2019-05-25T07:26:28.582Z,101204.33
2019-05-25T07:28:57.010Z,101198.27
2019-05-25T07:31:25.817Z,101199.05
2019-05-25T07:33:55.338Z,101197.22
2019-05-25T07:36:23.736Z,101202.20
2019-05-25T07:38:52.205Z,101207.98
2019-05-25T07:41:20.757Z,101195.91
2019-05-25T07:43:50.317Z,101193.17
2019-05-25T07:46:18.726Z,101190.81
2019-05-25T07:48:50.462Z,101193.05
2019-05-25T07:51:18.983Z,101196.99
2019-05-25T07:53:53.986Z,101203.20
2019-05-25T07:56:25.980Z,101200.14
2019-05-25T07:58:54.402Z,101201.55
2019-05-25T08:01:32.533Z,101205.34
2019-05-25T08:04:00.944Z,101201.62
2019-05-25T08:06:34.640Z,101202.73
2019-05-25T08:09:04.252Z,101197.53
2019-05-25T08:11:32.684Z,101201.98
2019-05-25T08:14:01.119Z,101210.36
2019-05-25T08:16:33.091Z,101206.38
2019-05-25T08:19:01.492Z,101207.67
2019-05-25T08:21:29.929Z,101214.94
2019-05-25T08:23:58.343Z,101229.27
2019-05-25T08:26:26.751Z,101231.36
2019-05-25T08:29:02.053Z,101231.03
2019-05-25T08:31:32.885Z,101228.25
2019-05-25T08:34:15.376Z,101237.37
2019-05-25T08:36:47.591Z,101233.20
2019-05-25T08:39:15.991Z,101229.45
2019-05-25T08:41:45.660Z,101241.98
2019-05-25T08:44:18.031Z,101241.10
2019-05-25T08:46:50.182Z,101252.37
2019-05-25T08:49:18.595Z,101252.91
2019-05-25T08:51:47.012Z,101253.47
2019-05-25T08:54:15.416Z,101259.66
2019-05-25T08:56:45.492Z,101254.28
2019-05-25T08:59:18.255Z,101263.31
2019-05-25T09:01:46.688Z,101254.81
2019-05-25T09:04:17.533Z,101256.22
2019-05-25T09:06:50.580Z,101262.33
2019-05-25T09:09:21.133Z,101263.15
2019-05-25T09:11:53.866Z,101265.25
2019-05-25T09:14:24.848Z,101268.93
2019-05-25T09:16:56.953Z,101263.20
2019-05-25T09:19:25.435Z,101269.12
2019-05-25T09:22:03.504Z,101268.25
2019-05-25T09:24:35.135Z,101268.45
2019-05-25T09:27:08.691Z,101267.92
2019-05-25T09:29:37.099Z,101273.54
2019-05-25T09:32:07.089Z,101270.36
2019-05-25T09:34:35.741Z,101252.26
2019-05-25T09:37:04.227Z,101274.88
2019-05-25T09:39:32.639Z,101280.00
2019-05-25T09:42:09.748Z,101283.67
2019-05-25T09:44:38.174Z,101282.61
2019-05-25T09:47:06.629Z,101278.31
2019-05-25T09:49:37.919Z,101278.69
2019-05-25T09:52:06.350Z,101280.20
2019-05-25T09:54:39.243Z,101277.27
2019-05-25T09:57:08.773Z,101278.17
2019-05-25T09:59:41.055Z,101281.47
2019-05-25T10:02:11.893Z,101274.42
2019-05-25T10:04:40.386Z,101275.30
2019-05-25T10:07:13.753Z,101275.81
2019-05-25T10:09:42.161Z,101271.81
2019-05-25T10:12:10.600Z,101275.32
2019-05-25T10:14:40.644Z,101269.82
2019-05-25T10:17:08.993Z,101273.36
2019-05-25T10:19:38.481Z,101272.20
2019-05-25T10:22:09.907Z,101277.80
2019-05-25T10:24:38.355Z,101277.02
2019-05-25T10:27:08.924Z,101277.06
2019-05-25T10:29:37.880Z,101272.61
2019-05-25T10:32:08.886Z,101276.67
2019-05-25T10:34:37.327Z,101265.02
2019-05-25T10:37:06.441Z,101267.78
2019-05-25T10:39:36.826Z,101264.19
2019-05-25T10:42:10.501Z,101268.66
2019-05-25T10:44:38.903Z,101266.20
2019-05-25T10:47:09.857Z,101260.64
2019-05-25T10:49:39.333Z,101271.17
2019-05-25T10:52:10.011Z,101265.99
2019-05-25T10:54:41.977Z,101268.90
2019-05-25T10:57:13.042Z,101260.97
2019-05-25T10:59:52.530Z,101258.19
2019-05-25T11:02:10.860Z,101267.28
2019-05-25T11:04:39.282Z,101256.46
2019-05-25T11:07:21.951Z,101265.33
2019-05-25T11:09:46.886Z,101268.61
2019-05-25T11:12:15.278Z,101279.85
2019-05-25T11:14:43.729Z,101267.13
2019-05-25T11:17:12.095Z,101262.60
2019-05-25T11:19:40.591Z,101259.20
2019-05-25T11:22:12.788Z,101271.06
2019-05-25T11:24:46.515Z,101272.23
2019-05-25T11:27:16.073Z,101272.17
2019-05-25T11:29:44.462Z,101272.60
2019-05-25T11:32:15.830Z,101273.40
2019-05-25T11:34:46.760Z,101275.06
2019-05-25T11:37:15.797Z,101274.98
2019-05-25T11:39:44.322Z,101270.08
2019-05-25T11:42:15.208Z,101269.28
2019-05-25T11:44:43.676Z,101268.13
2019-05-25T11:47:12.116Z,101271.03
2019-05-25T11:49:40.510Z,101266.48
2019-05-25T11:52:08.914Z,101273.47
2019-05-25T11:54:37.306Z,101273.52
2019-05-25T11:57:05.739Z,101270.65
2019-05-25T11:59:34.194Z,101270.56
2019-05-25T12:02:02.663Z,101269.23
2019-05-25T12:04:31.076Z,101261.78
2019-05-25T12:07:04.952Z,101261.20
2019-05-25T12:09:37.188Z,101257.95
2019-05-25T12:12:06.843Z,101256.67
2019-05-25T12:14:35.258Z,101257.88
2019-05-25T12:17:06.450Z,101258.08
2019-05-25T12:19:38.653Z,101266.17
2019-05-25T12:22:08.081Z,101266.17
2019-05-25T12:24:36.570Z,101274.81
2019-05-25T12:27:04.988Z,101273.20
2019-05-25T12:29:33.458Z,101265.12
2019-05-25T12:32:05.257Z,101271.78
2019-05-25T12:34:33.136Z,101267.13
2019-05-25T12:37:01.551Z,101269.42
2019-05-25T12:39:33.841Z,101270.08
2019-05-25T12:42:03.591Z,101258.91
2019-05-25T12:44:39.879Z,101263.98
2019-05-25T12:47:08.372Z,101264.59
2019-05-25T12:49:50.165Z,101265.34
2019-05-25T12:52:10.284Z,101267.36
2019-05-25T12:54:43.630Z,101264.05
2019-05-25T12:57:12.082Z,101267.26
2019-05-25T12:59:43.174Z,101276.89
2019-05-25T13:02:15.188Z,101275.71
2019-05-25T13:04:44.820Z,101279.85
2019-05-25T13:07:13.278Z,101286.11
2019-05-25T13:09:41.691Z,101282.77
2019-05-25T13:12:11.182Z,101285.78
2019-05-25T13:14:42.247Z,101282.18
2019-05-25T13:17:10.661Z,101291.76
2019-05-25T13:19:40.145Z,101292.56
2019-05-25T13:22:09.715Z,101291.83
2019-05-25T13:24:38.289Z,101287.87
2019-05-25T13:27:06.777Z,101290.30
2019-05-25T13:29:35.194Z,101293.19
2019-05-25T13:32:03.787Z,101292.20
2019-05-25T13:34:34.138Z,101299.45
2019-05-25T13:37:02.699Z,101304.47
2019-05-25T13:39:35.899Z,101304.90
2019-05-25T13:42:05.448Z,101305.16
2019-05-25T13:44:34.226Z,101311.14
2019-05-25T13:47:05.298Z,101311.13
2019-05-25T13:49:33.856Z,101311.92
2019-05-25T13:52:03.283Z,101306.75
2019-05-25T13:54:34.248Z,101306.41
2019-05-25T13:57:02.674Z,101307.80
2019-05-25T13:59:31.091Z,101304.52
2019-05-25T14:01:59.523Z,101309.58
2019-05-25T14:04:27.939Z,101305.38
2019-05-25T14:06:56.437Z,101307.09
2019-05-25T14:09:24.856Z,101311.94
2019-05-25T14:11:53.300Z,101313.30
2019-05-25T14:14:24.363Z,101309.47
2019-05-25T14:16:54.539Z,101312.71
2019-05-25T14:19:22.950Z,101310.53
2019-05-25T14:21:52.358Z,101317.83
2019-05-25T14:24:21.806Z,101318.69
2019-05-25T14:26:54.290Z,101307.11
2019-05-25T14:29:26.026Z,101313.55
2019-05-25T14:31:53.873Z,101316.37
2019-05-25T14:34:23.284Z,101313.61
2019-05-25T14:36:53.020Z,101312.10
2019-05-25T14:39:26.231Z,101301.37
2019-05-25T14:41:57.165Z,101310.41
2019-05-25T14:44:28.101Z,101306.59
2019-05-25T14:46:57.624Z,101308.22
2019-05-25T14:49:28.108Z,101302.41
2019-05-25T14:51:57.590Z,101301.72
2019-05-25T14:54:29.728Z,101303.23
2019-05-25T14:56:58.224Z,101309.63
2019-05-25T14:59:26.633Z,101305.70
2019-05-25T15:02:02.383Z,101305.70
2019-05-25T15:04:26.309Z,101301.60
2019-05-25T15:06:54.878Z,101299.23
2019-05-25T15:09:31.483Z,101303.91
2019-05-25T15:12:02.006Z,101309.62
2019-05-25T15:14:31.325Z,101302.91
2019-05-25T15:17:01.337Z,101303.66
2019-05-25T15:19:30.998Z,101298.44
2019-05-25T15:22:02.525Z,101303.36
2019-05-25T15:24:37.064Z,101301.33
2019-05-25T15:27:07.443Z,101301.33
2019-05-25T15:29:40.818Z,101298.63
2019-05-25T15:32:19.937Z,101292.01
2019-05-25T15:34:46.644Z,101296.23
2019-05-25T15:37:15.344Z,101296.48
2019-05-25T15:39:46.969Z,101293.56
2019-05-25T15:42:15.005Z,101296.11
2019-05-25T15:44:43.807Z,101294.51
2019-05-25T15:47:13.792Z,101295.78
2019-05-25T15:49:43.791Z,101299.66
2019-05-25T15:52:13.633Z,101296.70
2019-05-25T15:54:47.467Z,101294.25
2019-05-25T15:57:16.144Z,101290.51
2019-05-25T15:59:46.780Z,101299.58
2019-05-25T16:02:36.267Z,101295.88
2019-05-25T16:04:57.535Z,101296.89
2019-05-25T16:07:25.999Z,101299.02
2019-05-25T16:09:54.707Z,101296.08
2019-05-25T16:12:23.276Z,101300.11
2019-05-25T16:14:56.959Z,101302.52
2019-05-25T16:17:26.263Z,101305.08
2019-05-25T16:19:54.874Z,101306.34
2019-05-25T16:22:23.617Z,101314.67
2019-05-25T16:24:59.907Z,101321.84
2019-05-25T16:27:30.146Z,101319.08
2019-05-25T16:29:58.687Z,101315.39
2019-05-25T16:32:27.180Z,101314.34
2019-05-25T16:35:00.384Z,101314.09
2019-05-25T16:37:37.607Z,101314.55
2019-05-25T16:40:10.893Z,101314.13
2019-05-25T16:42:39.605Z,101319.27
2019-05-25T16:45:10.286Z,101308.94
2019-05-25T16:47:44.264Z,101310.53
2019-05-25T16:50:14.994Z,101312.73
2019-05-25T16:52:46.682Z,101310.71
2019-05-25T16:55:16.487Z,101315.15
2019-05-25T16:57:49.067Z,101313.05
2019-05-25T17:00:20.586Z,101312.85
2019-05-25T17:02:52.838Z,101303.41
2019-05-25T17:05:21.437Z,101308.23
2019-05-25T17:07:52.172Z,101308.50
2019-05-25T17:10:22.522Z,101304.69
2019-05-25T17:12:53.606Z,101305.34
2019-05-25T17:15:22.347Z,101307.51
2019-05-25T17:17:51.121Z,101305.61
2019-05-25T17:20:23.670Z,101304.63
2019-05-25T17:22:54.152Z,101306.12
2019-05-25T17:25:22.628Z,101308.44
2019-05-25T17:27:51.099Z,101304.09
2019-05-25T17:30:39.912Z,101301.30
2019-05-25T17:33:09.565Z,101296.47
2019-05-25T17:35:43.214Z,101294.64
2019-05-25T17:38:11.910Z,101295.47
2019-05-25T17:40:40.437Z,101297.98
2019-05-25T17:43:08.886Z,101302.69
2019-05-25T17:45:37.348Z,101297.80
2019-05-25T17:48:09.807Z,101290.63
2019-05-25T17:50:41.075Z,101295.42
2019-05-25T17:53:13.450Z,101294.79
2019-05-25T17:55:41.160Z,101292.38
2019-05-25T17:58:32.932Z,101291.39
2019-05-25T18:01:16.799Z,101300.78
2019-05-25T18:04:05.379Z,101295.73
2019-05-25T18:06:23.786Z,101295.22
2019-05-25T18:08:52.228Z,101299.86
2019-05-25T18:11:22.612Z,101305.55
2019-05-25T18:13:50.997Z,101302.13
2019-05-25T18:16:23.279Z,101309.14
2019-05-25T18:18:51.699Z,101302.92
2019-05-25T18:21:22.107Z,101308.66
2019-05-25T18:23:50.520Z,101302.08
2019-05-25T18:26:21.715Z,101152.44
2019-05-25T18:29:23.647Z,101302.94
2019-05-25T18:32:04.377Z,101301.06
2019-05-25T18:34:33.201Z,101302.78
2019-05-25T18:37:03.293Z,101303.12
2019-05-25T18:39:36.875Z,101303.78
2019-05-25T18:42:10.261Z,101309.62
2019-05-25T18:44:38.681Z,101303.97
2019-05-25T18:47:10.702Z,101303.42
2019-05-25T18:49:48.328Z,101306.24
2019-05-25T18:52:22.134Z,101300.22
2019-05-25T18:54:54.762Z,101296.09
2019-05-25T18:57:25.960Z,101298.80
2019-05-25T18:59:57.979Z,101293.09
2019-05-25T19:02:30.160Z,101301.84
2019-05-25T19:05:01.185Z,101309.02
2019-05-25T19:07:30.808Z,101307.03
2019-05-25T19:09:59.329Z,101306.67
2019-05-25T19:12:27.862Z,101313.20
2019-05-25T19:14:58.353Z,101310.34
2019-05-25T19:17:29.325Z,101318.37
2019-05-25T19:20:01.697Z,101318.73
2019-05-25T19:22:40.684Z,101321.25
2019-05-25T19:25:12.596Z,101317.41
2019-05-25T19:27:43.904Z,101324.45
2019-05-25T19:30:15.730Z,101324.45
2019-05-25T19:32:48.237Z,101334.11
2019-05-25T19:35:16.677Z,101335.95
2019-05-25T19:37:48.109Z,101327.76
2019-05-25T19:40:17.161Z,101324.75
2019-05-25T19:42:50.227Z,101330.12
2019-05-25T19:45:20.206Z,101325.42
2019-05-25T19:47:49.556Z,101333.95
2019-05-25T19:50:18.186Z,101326.13
2019-05-25T19:52:49.044Z,101326.28
2019-05-25T19:55:17.603Z,101323.45
2019-05-25T19:57:47.044Z,101322.95
2019-05-25T20:00:19.872Z,101317.60
2019-05-25T20:02:48.297Z,101315.77
2019-05-25T20:05:17.639Z,101314.09
2019-05-25T20:07:46.180Z,101312.77
2019-05-25T20:10:15.322Z,101313.44
2019-05-25T20:12:47.097Z,101314.97
2019-05-25T20:15:16.684Z,101314.45
2019-05-25T20:17:45.056Z,101322.80
2019-05-25T20:20:14.196Z,101319.30
2019-05-25T20:22:45.094Z,101316.48
2019-05-25T20:25:13.718Z,101316.79
2019-05-25T20:27:48.749Z,101317.11
2019-05-25T20:30:16.344Z,101311.77
2019-05-25T20:32:47.304Z,101311.42
2019-05-25T20:35:31.757Z,101310.94
2019-05-25T20:37:46.147Z,101306.12
2019-05-25T20:40:14.770Z,101304.60
2019-05-25T20:42:43.153Z,101310.59
2019-05-25T20:45:14.219Z,101307.78
2019-05-25T20:47:45.092Z,101310.59
2019-05-25T20:50:16.694Z,101306.59
2019-05-25T20:52:45.098Z,101295.92
2019-05-25T20:55:13.682Z,101295.92
2019-05-25T20:57:42.090Z,101296.09
2019-05-25T21:00:11.058Z,101295.75
2019-05-25T21:02:39.467Z,101300.45
2019-05-25T21:05:11.721Z,101304.78
2019-05-25T21:07:40.142Z,101301.59
2019-05-25T21:10:09.937Z,101303.11
2019-05-25T21:12:38.367Z,101306.29
2019-05-25T21:15:10.647Z,101304.44
2019-05-25T21:17:39.112Z,101296.75
2019-05-25T21:20:07.958Z,101294.73
2019-05-25T21:22:40.133Z,101295.70
2019-05-25T21:25:12.494Z,101300.92
2019-05-25T21:27:43.284Z,101302.94
2019-05-25T21:30:15.476Z,101300.89
2019-05-25T21:32:44.048Z,101301.50
2019-05-25T21:35:12.689Z,101297.23
2019-05-25T21:37:42.033Z,101298.22
2019-05-25T21:40:11.623Z,101299.22
2019-05-25T21:42:40.516Z,101298.22
2019-05-25T21:45:10.385Z,101298.19
2019-05-25T21:47:38.790Z,101299.69
2019-05-25T21:50:07.765Z,101300.47
2019-05-25T21:52:36.565Z,101296.17
2019-05-25T21:55:06.778Z,101299.73
2019-05-25T21:57:35.164Z,101290.05
2019-05-25T22:00:10.929Z,101296.23
2019-05-25T22:02:39.373Z,101288.75
2019-05-25T22:05:09.109Z,101293.91
2019-05-25T22:07:38.514Z,101296.23
2019-05-25T22:10:07.151Z,101291.25
2019-05-25T22:12:36.517Z,101280.80
2019-05-25T22:15:08.623Z,101277.12
2019-05-25T22:17:39.661Z,101272.92
2019-05-25T22:20:10.784Z,101270.39
2019-05-25T22:22:39.227Z,101272.03
2019-05-25T22:25:09.148Z,101264.69
2019-05-25T22:27:40.142Z,101267.63
2019-05-25T22:30:12.292Z,101262.33
2019-05-25T22:32:42.084Z,101262.93
2019-05-25T22:35:16.815Z,101261.03
2019-05-25T22:37:46.225Z,101267.02
2019-05-25T22:40:20.179Z,101263.53
2019-05-25T22:42:48.747Z,101264.52
2019-05-25T22:45:17.235Z,101254.08
2019-05-25T22:47:45.635Z,101255.48
2019-05-25T22:50:14.490Z,101253.26
2019-05-25T22:52:45.564Z,101249.44
2019-05-25T22:55:31.592Z,101239.77
2019-05-25T22:57:53.287Z,101241.95
2019-05-25T23:00:21.873Z,101236.45
2019-05-25T23:02:54.070Z,101237.06
2019-05-25T23:05:22.480Z,101232.63
2019-05-25T23:07:50.885Z,101231.34
2019-05-25T23:10:19.445Z,101227.20
2019-05-25T23:12:47.837Z,101230.77
2019-05-25T23:15:16.420Z,101229.27
2019-05-25T23:17:44.885Z,101223.67
2019-05-25T23:20:14.009Z,101229.75
2019-05-25T23:22:42.438Z,101232.18
2019-05-25T23:25:11.065Z,101223.13
2019-05-25T23:27:39.493Z,101222.66
2019-05-25T23:30:12.720Z,101225.57
2019-05-25T23:32:41.149Z,101221.23
2019-05-25T23:35:09.627Z,101222.34
2019-05-25T23:37:38.043Z,101224.17
2019-05-25T23:40:10.198Z,101218.73
2019-05-25T23:42:41.318Z,101216.02
2019-05-25T23:45:11.445Z,101215.84
2019-05-25T23:47:40.978Z,101207.86
2019-05-25T23:50:13.413Z,101200.17
2019-05-25T23:52:41.084Z,101199.13
2019-05-25T23:55:09.886Z,101200.45
2019-05-25T23:57:39.475Z,101192.69
